createdAt,value
2022-08-26T00:02:24.212Z,9.15
2022-08-26T00:04:54.709Z,9.57
2022-08-26T00:07:25.100Z,10.52
2022-08-26T00:09:58.921Z,9.27
2022-08-26T00:12:36.005Z,9.70
2022-08-26T00:15:11.513Z,9.20
2022-08-26T00:17:42.285Z,10.65
2022-08-26T00:20:22.473Z,9.23
2022-08-26T00:22:53.038Z,9.57
2022-08-26T00:25:26.425Z,9.77
2022-08-26T00:27:56.850Z,9.90
2022-08-26T00:30:30.327Z,10.18
2022-08-26T00:33:01.960Z,9.93
2022-08-26T00:35:33.542Z,9.70
2022-08-26T00:38:05.258Z,9.43
2022-08-26T00:40:47.378Z,9.93
2022-08-26T00:43:18.600Z,9.98
2022-08-26T00:45:56.637Z,10.00
2022-08-26T00:48:31.908Z,10.05
2022-08-26T00:51:09.763Z,9.93
2022-08-26T00:53:46.796Z,10.05
2022-08-26T00:56:27.288Z,10.27
2022-08-26T00:59:00.107Z,9.82
2022-08-26T01:01:31.391Z,9.75
2022-08-26T01:04:02.808Z,9.38
2022-08-26T01:06:33.381Z,9.55
2022-08-26T01:09:03.734Z,9.57
2022-08-26T01:11:37.263Z,8.98
2022-08-26T01:14:09.434Z,9.02
2022-08-26T01:16:40.382Z,9.85
2022-08-26T01:19:21.986Z,10.00
2022-08-26T01:22:01.329Z,10.48
2022-08-26T01:24:34.816Z,10.20
2022-08-26T01:27:13.469Z,9.18
2022-08-26T01:29:47.426Z,9.60
2022-08-26T01:32:25.988Z,10.13
2022-08-26T01:34:57.378Z,9.77
2022-08-26T01:37:36.910Z,10.35
2022-08-26T01:40:17.305Z,10.10
2022-08-26T01:42:49.337Z,10.02
2022-08-26T01:45:25.879Z,10.65
2022-08-26T01:48:00.319Z,10.05
2022-08-26T01:50:34.456Z,9.88
2022-08-26T01:53:09.757Z,10.13
2022-08-26T01:55:49.489Z,9.70
2022-08-26T01:58:27.041Z,10.20
2022-08-26T02:00:57.961Z,10.10
2022-08-26T02:03:29.960Z,9.82
2022-08-26T02:06:04.720Z,10.73
2022-08-26T02:08:42.478Z,10.25
2022-08-26T02:11:18.285Z,10.30
2022-08-26T02:13:52.525Z,10.77
2022-08-26T02:16:29.211Z,11.23
2022-08-26T02:21:30.024Z,10.15
2022-08-26T02:24:11.678Z,10.45
2022-08-26T02:26:46.377Z,10.50
2022-08-26T02:31:53.305Z,10.10
2022-08-26T02:34:31.430Z,10.40
2022-08-26T02:37:03.684Z,9.40
2022-08-26T02:39:35.473Z,10.48
2022-08-26T02:42:09.188Z,11.15
2022-08-26T02:44:40.289Z,10.60
2022-08-26T02:47:11.083Z,10.60
2022-08-26T02:49:44.346Z,10.13
2022-08-26T02:52:17.790Z,10.13
2022-08-26T02:54:49.594Z,10.43
2022-08-26T02:57:23.420Z,10.57
2022-08-26T02:59:54.511Z,10.13
2022-08-26T03:02:24.834Z,10.05
2022-08-26T03:04:57.323Z,10.65
2022-08-26T03:07:31.089Z,9.35
2022-08-26T03:10:01.777Z,10.30
2022-08-26T03:12:41.796Z,10.48
2022-08-26T03:15:17.573Z,9.73
2022-08-26T03:17:50.502Z,10.52
2022-08-26T03:20:21.615Z,9.43
2022-08-26T03:22:53.518Z,10.02
2022-08-26T03:25:27.161Z,10.95
2022-08-26T03:28:00.130Z,10.02
2022-08-26T03:30:44.890Z,11.70
2022-08-26T03:33:17.483Z,10.00
2022-08-26T03:35:50.543Z,11.07
2022-08-26T03:38:22.186Z,10.85
2022-08-26T03:40:52.648Z,11.43
2022-08-26T03:43:26.963Z,11.57
2022-08-26T03:45:57.323Z,10.27
2022-08-26T03:48:27.573Z,11.02
2022-08-26T03:50:57.756Z,10.52
2022-08-26T03:53:28.168Z,11.48
2022-08-26T03:55:58.567Z,10.82
2022-08-26T03:58:32.308Z,11.68
2022-08-26T04:01:02.830Z,10.80
2022-08-26T04:03:46.348Z,10.68
2022-08-26T04:06:16.661Z,10.20
2022-08-26T04:08:47.754Z,10.68
2022-08-26T04:11:21.751Z,10.25
2022-08-26T04:13:54.756Z,10.48
2022-08-26T04:16:25.107Z,10.20
2022-08-26T04:18:58.310Z,10.15
2022-08-26T04:21:30.193Z,9.95
2022-08-26T04:24:03.619Z,10.43
2022-08-26T04:26:39.591Z,10.93
2022-08-26T04:29:20.874Z,10.25
2022-08-26T04:31:55.259Z,9.80
2022-08-26T04:36:59.375Z,12.18
2022-08-26T04:39:30.337Z,10.43
2022-08-26T04:42:02.735Z,11.50
2022-08-26T04:44:39.397Z,10.48
2022-08-26T04:47:10.025Z,11.32
2022-08-26T04:49:41.547Z,10.80
2022-08-26T04:52:12.060Z,11.07
2022-08-26T04:54:42.860Z,11.55
2022-08-26T04:57:14.125Z,11.27
2022-08-26T04:59:47.081Z,11.50
2022-08-26T05:02:19.950Z,11.75
2022-08-26T05:04:51.902Z,11.60
2022-08-26T05:07:22.363Z,12.55
2022-08-26T05:09:53.035Z,11.60
2022-08-26T05:12:24.885Z,12.88
2022-08-26T05:14:58.012Z,12.20
2022-08-26T05:17:28.114Z,12.15
2022-08-26T05:19:58.530Z,12.52
2022-08-26T05:22:28.746Z,11.55
2022-08-26T05:24:59.216Z,12.52
2022-08-26T05:27:29.521Z,11.80
2022-08-26T05:30:03.524Z,11.15
2022-08-26T05:32:34.413Z,14.77
2022-08-26T05:35:04.633Z,12.65
2022-08-26T05:37:40.898Z,12.77
2022-08-26T05:40:12.885Z,12.77
2022-08-26T05:42:43.128Z,12.23
2022-08-26T05:45:16.787Z,13.38
2022-08-26T05:47:47.500Z,12.52
2022-08-26T05:50:21.988Z,12.82
2022-08-26T05:52:53.727Z,12.57
2022-08-26T05:55:24.423Z,12.75
2022-08-26T05:57:54.622Z,12.65
2022-08-26T06:00:28.426Z,14.07
2022-08-26T06:02:59.138Z,12.45
2022-08-26T06:05:29.919Z,13.05
2022-08-26T06:08:12.712Z,12.45
2022-08-26T06:10:48.673Z,13.50
2022-08-26T06:13:26.973Z,11.40
2022-08-26T06:16:06.231Z,14.13
2022-08-26T06:18:41.363Z,12.70
2022-08-26T06:21:19.738Z,12.68
2022-08-26T06:24:05.218Z,13.07
2022-08-26T06:26:36.575Z,13.38
2022-08-26T06:29:08.772Z,11.77
2022-08-26T06:31:41.766Z,13.13
2022-08-26T06:34:12.507Z,12.05
2022-08-26T06:36:47.401Z,13.38
2022-08-26T06:39:20.773Z,11.68
2022-08-26T06:41:52.205Z,12.90
2022-08-26T06:44:23.437Z,12.43
2022-08-26T06:46:56.436Z,12.10
2022-08-26T06:49:27.865Z,11.13
2022-08-26T06:51:59.299Z,13.00
2022-08-26T06:54:31.990Z,11.50
2022-08-26T06:57:02.577Z,10.93
2022-08-26T06:59:34.003Z,11.80
2022-08-26T07:02:08.332Z,10.93
2022-08-26T07:04:38.548Z,12.52
2022-08-26T07:07:09.668Z,11.75
2022-08-26T07:09:39.971Z,10.85
2022-08-26T07:12:10.519Z,11.40
2022-08-26T07:14:41.309Z,11.25
2022-08-26T07:17:20.450Z,11.52
2022-08-26T07:19:51.744Z,10.75
2022-08-26T07:22:23.253Z,9.80
2022-08-26T07:24:55.061Z,9.30
2022-08-26T07:27:26.130Z,9.82
2022-08-26T07:30:00.181Z,9.60
2022-08-26T07:32:35.104Z,10.20
2022-08-26T07:35:05.802Z,11.10
2022-08-26T07:37:39.358Z,10.88
2022-08-26T07:40:12.073Z,11.43
2022-08-26T07:42:42.600Z,9.77
2022-08-26T07:45:13.365Z,10.20
2022-08-26T07:47:47.846Z,9.57
2022-08-26T07:50:18.152Z,9.70
2022-08-26T07:52:48.462Z,10.13
2022-08-26T07:55:19.085Z,9.07
2022-08-26T07:57:49.901Z,9.70
2022-08-26T08:00:20.678Z,9.77
2022-08-26T08:02:54.253Z,9.73
2022-08-26T08:05:27.242Z,9.48
2022-08-26T08:08:27.223Z,9.63
2022-08-26T08:10:55.369Z,8.57
2022-08-26T08:13:27.035Z,9.73
2022-08-26T08:15:57.648Z,9.07
2022-08-26T08:18:31.327Z,8.18
2022-08-26T08:21:20.953Z,8.52
2022-08-26T08:23:52.784Z,8.32
2022-08-26T08:26:23.698Z,8.90
2022-08-26T08:28:56.942Z,7.95
2022-08-26T08:31:56.280Z,8.32
2022-08-26T08:34:23.247Z,7.75
2022-08-26T08:36:54.349Z,7.68
2022-08-26T08:39:25.139Z,7.55
2022-08-26T08:42:26.138Z,8.45
2022-08-26T08:45:01.721Z,7.55
2022-08-26T08:47:37.927Z,7.57
2022-08-26T08:50:32.009Z,7.95
2022-08-26T08:53:15.482Z,8.87
2022-08-26T08:56:02.138Z,7.60
2022-08-26T08:58:51.315Z,7.93
2022-08-26T09:01:39.610Z,8.13
2022-08-26T09:04:51.551Z,7.45
2022-08-26T09:07:31.259Z,7.78
2022-08-26T09:10:08.458Z,7.85
2022-08-26T09:12:39.016Z,7.22
2022-08-26T09:15:20.544Z,7.03
2022-08-26T09:18:00.094Z,7.55
2022-08-26T09:20:45.682Z,6.70
2022-08-26T09:23:19.609Z,6.75
2022-08-26T09:28:50.575Z,7.40
2022-08-26T09:31:27.639Z,6.50
2022-08-26T09:34:17.391Z,6.28
2022-08-26T09:36:51.519Z,6.80
2022-08-26T09:39:37.928Z,6.32
2022-08-26T09:42:14.156Z,6.43
2022-08-26T09:45:00.527Z,7.25
2022-08-26T09:47:34.625Z,6.00
2022-08-26T09:50:12.383Z,6.32
2022-08-26T09:52:43.128Z,6.95
2022-08-26T09:55:24.129Z,7.13
2022-08-26T09:57:57.538Z,7.43
2022-08-26T10:00:35.435Z,7.13
2022-08-26T10:03:15.561Z,7.70
2022-08-26T10:05:57.584Z,7.05
2022-08-26T10:08:33.984Z,7.90
2022-08-26T10:11:17.927Z,7.13
2022-08-26T10:13:55.662Z,6.97
2022-08-26T10:16:30.287Z,7.10
2022-08-26T10:19:09.261Z,7.55
2022-08-26T10:21:45.684Z,6.57
2022-08-26T10:24:31.323Z,7.22
2022-08-26T10:27:13.599Z,6.75
2022-08-26T10:29:49.500Z,6.80
2022-08-26T10:32:30.959Z,7.78
2022-08-26T10:35:01.372Z,7.15
2022-08-26T10:37:48.858Z,7.38
2022-08-26T10:40:27.601Z,7.70
2022-08-26T10:43:11.171Z,7.40
2022-08-26T10:45:47.318Z,8.82
2022-08-26T10:48:23.509Z,7.65
2022-08-26T10:50:53.832Z,7.47
2022-08-26T10:53:33.908Z,7.28
2022-08-26T10:56:18.842Z,7.50
2022-08-26T10:59:10.416Z,7.68
2022-08-26T11:01:52.546Z,7.05
2022-08-26T11:04:42.371Z,8.23
2022-08-26T11:07:41.028Z,7.57
2022-08-26T11:10:49.395Z,9.20
2022-08-26T11:13:22.989Z,8.10
2022-08-26T11:16:11.200Z,8.82
2022-08-26T11:18:51.350Z,9.05
2022-08-26T11:21:53.784Z,9.00
2022-08-26T11:25:03.081Z,8.70
2022-08-26T11:28:09.727Z,8.73
2022-08-26T11:30:57.826Z,8.10
2022-08-26T11:34:00.253Z,8.90
2022-08-26T11:37:02.469Z,8.27
2022-08-26T11:39:54.044Z,8.40
2022-08-26T11:42:38.187Z,8.85
2022-08-26T11:45:24.334Z,8.55
2022-08-26T11:47:57.729Z,9.02
2022-08-26T11:50:31.323Z,8.30
2022-08-26T11:53:06.252Z,7.82
2022-08-26T11:55:39.400Z,8.23
2022-08-26T11:58:09.748Z,8.43
2022-08-26T12:00:55.328Z,8.77
2022-08-26T12:03:38.906Z,7.57
2022-08-26T12:06:17.264Z,7.93
2022-08-26T12:08:48.553Z,7.85
2022-08-26T12:11:27.156Z,8.13
2022-08-26T12:14:00.526Z,7.07
2022-08-26T12:16:33.594Z,8.03
2022-08-26T12:19:27.436Z,6.90
2022-08-26T12:22:01.790Z,7.47
2022-08-26T12:27:19.952Z,7.45
2022-08-26T12:30:06.802Z,7.70
2022-08-26T12:32:57.155Z,6.72
2022-08-26T12:35:31.299Z,7.10
2022-08-26T12:38:03.006Z,7.05
2022-08-26T12:40:40.113Z,7.47
2022-08-26T12:43:15.804Z,4.60
2022-08-26T12:45:58.225Z,3.08
2022-08-26T12:48:32.548Z,3.42
2022-08-26T12:51:09.583Z,3.55
2022-08-26T12:53:46.465Z,3.45
2022-08-26T12:56:30.472Z,2.50
2022-08-26T12:59:12.255Z,3.45
2022-08-26T13:01:46.956Z,3.33
2022-08-26T13:04:38.463Z,3.63
2022-08-26T13:07:25.710Z,4.30
2022-08-26T13:09:58.603Z,3.47
2022-08-26T13:12:33.296Z,3.83
2022-08-26T13:15:05.365Z,4.78
2022-08-26T13:17:36.223Z,4.07
2022-08-26T13:20:07.725Z,4.55
2022-08-26T13:25:12.020Z,4.50
2022-08-26T13:27:42.352Z,4.35
2022-08-26T13:30:15.012Z,4.57
2022-08-26T13:32:45.597Z,4.75
2022-08-26T13:35:15.879Z,5.63
2022-08-26T13:37:48.798Z,5.43
2022-08-26T13:40:19.462Z,5.57
2022-08-26T13:42:50.183Z,6.15
2022-08-26T13:45:20.892Z,5.88
2022-08-26T13:47:51.425Z,5.18
2022-08-26T13:50:21.761Z,5.32
2022-08-26T13:52:54.659Z,5.15
2022-08-26T13:55:25.156Z,5.57
2022-08-26T13:57:55.388Z,4.75
2022-08-26T14:00:25.937Z,5.15
2022-08-26T14:02:56.369Z,5.20
2022-08-26T14:05:26.859Z,5.22
2022-08-26T14:08:00.314Z,5.70
2022-08-26T14:10:31.031Z,5.50
2022-08-26T14:13:01.399Z,5.90
2022-08-26T14:15:32.337Z,5.38
2022-08-26T14:18:05.462Z,5.72
2022-08-26T14:20:39.702Z,5.18
2022-08-26T14:23:14.160Z,6.00
2022-08-26T14:25:45.278Z,5.05
2022-08-26T14:28:15.720Z,5.05
2022-08-26T14:30:49.345Z,5.30
2022-08-26T14:33:23.188Z,4.70
2022-08-26T14:35:53.695Z,5.38
2022-08-26T14:38:26.697Z,4.80
2022-08-26T14:40:57.073Z,4.43
2022-08-26T14:43:27.357Z,5.47
2022-08-26T14:45:57.677Z,5.25
2022-08-26T14:48:28.092Z,4.38
2022-08-26T14:50:58.457Z,4.68
2022-08-26T14:53:43.794Z,5.35
2022-08-26T14:56:16.686Z,5.90
2022-08-26T14:58:47.239Z,5.03
2022-08-26T15:01:17.664Z,6.65
2022-08-26T15:03:48.784Z,5.70
2022-08-26T15:06:19.917Z,6.20
2022-08-26T15:08:52.820Z,5.40
2022-08-26T15:11:23.121Z,5.15
2022-08-26T15:13:53.577Z,5.50
2022-08-26T15:16:24.134Z,5.35
2022-08-26T15:18:54.664Z,5.20
2022-08-26T15:21:25.270Z,5.18
2022-08-26T15:23:58.258Z,5.28
2022-08-26T15:26:29.993Z,5.22
2022-08-26T15:29:04.336Z,5.65
2022-08-26T15:31:36.808Z,4.30
2022-08-26T15:34:16.175Z,4.38
2022-08-26T15:36:47.580Z,4.35
2022-08-26T15:39:20.917Z,5.25
2022-08-26T15:41:51.752Z,4.55
2022-08-26T15:44:22.092Z,5.85
2022-08-26T15:46:58.289Z,6.50
2022-08-26T15:49:29.124Z,5.13
2022-08-26T15:51:59.761Z,5.70
2022-08-26T15:54:32.664Z,6.00
2022-08-26T15:57:07.173Z,5.57
2022-08-26T15:59:39.876Z,5.90
2022-08-26T16:02:11.266Z,6.57
2022-08-26T16:04:42.060Z,5.82
2022-08-26T16:07:14.136Z,5.63
2022-08-26T16:09:49.207Z,6.10
2022-08-26T16:12:24.448Z,6.75
2022-08-26T16:14:54.784Z,5.75
2022-08-26T16:17:25.836Z,6.10
2022-08-26T16:19:56.439Z,6.10
2022-08-26T16:22:28.505Z,5.65
2022-08-26T16:25:02.550Z,6.50
2022-08-26T16:27:32.769Z,5.90
2022-08-26T16:30:03.143Z,6.15
2022-08-26T16:32:33.425Z,5.80
2022-08-26T16:35:03.698Z,5.32
2022-08-26T16:37:38.945Z,5.70
2022-08-26T16:40:14.263Z,5.82
2022-08-26T16:42:44.553Z,6.00
2022-08-26T16:45:15.200Z,5.18
2022-08-26T16:47:45.763Z,5.28
2022-08-26T16:50:16.334Z,4.97
2022-08-26T16:52:46.620Z,6.03
2022-08-26T16:55:25.769Z,5.38
2022-08-26T16:57:56.197Z,5.40
2022-08-26T17:00:30.527Z,5.53
2022-08-26T17:03:03.027Z,5.35
2022-08-26T17:05:33.768Z,5.65
2022-08-26T17:08:04.067Z,5.55
2022-08-26T17:10:37.909Z,5.40
2022-08-26T17:13:08.735Z,5.88
2022-08-26T17:15:39.061Z,6.18
2022-08-26T17:18:09.576Z,6.47
2022-08-26T17:20:39.735Z,6.85
2022-08-26T17:23:10.371Z,7.45
2022-08-26T17:25:43.583Z,5.93
2022-08-26T17:28:14.443Z,7.18
2022-08-26T17:30:45.026Z,7.43
2022-08-26T17:33:15.378Z,6.78
2022-08-26T17:35:53.144Z,7.15
2022-08-26T17:38:24.005Z,6.07
2022-08-26T17:40:57.503Z,6.72
2022-08-26T17:43:29.543Z,7.20
2022-08-26T17:46:07.020Z,6.90
2022-08-26T17:48:37.742Z,6.97
2022-08-26T17:51:12.317Z,7.35
2022-08-26T17:53:42.633Z,6.65
2022-08-26T17:56:18.618Z,6.93
2022-08-26T17:58:52.015Z,6.20
2022-08-26T18:01:22.782Z,6.75
2022-08-26T18:03:56.687Z,6.68
2022-08-26T18:06:30.480Z,7.20
2022-08-26T18:09:01.380Z,7.07
2022-08-26T18:11:34.831Z,6.82
2022-08-26T18:14:05.192Z,6.72
2022-08-26T18:16:38.484Z,6.40
2022-08-26T18:19:09.520Z,6.85
2022-08-26T18:21:39.920Z,7.75
2022-08-26T18:24:14.093Z,8.00
2022-08-26T18:31:51.338Z,7.75
2022-08-26T18:34:21.644Z,7.13
2022-08-26T18:36:55.280Z,7.50
2022-08-26T18:39:25.620Z,7.03
2022-08-26T18:41:59.030Z,7.28
2022-08-26T18:44:29.453Z,6.60
2022-08-26T18:46:59.696Z,7.93
2022-08-26T18:49:30.047Z,7.30
2022-08-26T18:52:00.380Z,6.82
2022-08-26T18:54:30.586Z,7.43
2022-08-26T18:57:03.541Z,7.57
2022-08-26T18:59:33.669Z,7.43
2022-08-26T19:02:04.152Z,7.45
2022-08-26T19:04:34.637Z,8.15
2022-08-26T19:07:04.958Z,7.22
2022-08-26T19:09:35.994Z,7.22
2022-08-26T19:12:09.763Z,7.10
2022-08-26T19:14:40.123Z,6.85
2022-08-26T19:17:10.400Z,6.55
2022-08-26T19:19:40.885Z,7.20
2022-08-26T19:22:11.362Z,6.07
2022-08-26T19:24:41.646Z,6.72
2022-08-26T19:27:15.130Z,5.95
2022-08-26T19:29:45.403Z,6.70
2022-08-26T19:32:17.124Z,6.68
2022-08-26T19:34:47.495Z,6.97
2022-08-26T19:37:17.875Z,6.82
2022-08-26T19:39:48.075Z,6.82
2022-08-26T19:42:20.937Z,7.43
2022-08-26T19:45:03.607Z,7.03
2022-08-26T19:47:33.838Z,6.97
2022-08-26T19:50:04.032Z,7.10
2022-08-26T19:52:34.359Z,6.85
2022-08-26T19:55:06.899Z,7.13
2022-08-26T19:57:41.352Z,6.97
2022-08-26T20:02:46.505Z,7.22
2022-08-26T20:05:20.105Z,7.10
2022-08-26T20:07:50.919Z,7.03
2022-08-26T20:10:25.564Z,8.15
2022-08-26T20:12:58.641Z,7.95
2022-08-26T20:15:29.194Z,7.60
2022-08-26T20:17:59.719Z,7.65
2022-08-26T20:20:42.381Z,8.40
2022-08-26T20:23:12.987Z,8.00
2022-08-26T20:25:43.876Z,7.75
2022-08-26T20:28:16.808Z,7.70
2022-08-26T20:30:47.244Z,8.00
2022-08-26T20:33:17.575Z,8.15
2022-08-26T20:35:47.883Z,7.88
2022-08-26T20:38:21.454Z,8.35
2022-08-26T20:40:52.178Z,9.13
2022-08-26T20:43:29.595Z,8.82
2022-08-26T20:46:00.054Z,10.82
2022-08-26T20:48:30.683Z,9.70
2022-08-26T20:51:02.613Z,9.38
2022-08-26T20:53:33.427Z,9.93
2022-08-26T20:56:05.107Z,9.90
2022-08-26T20:58:38.587Z,8.88
2022-08-26T21:01:09.829Z,10.50
2022-08-26T21:03:41.080Z,10.02
2022-08-26T21:06:11.538Z,9.63
2022-08-26T21:08:43.278Z,9.65
2022-08-26T21:11:14.942Z,9.30
2022-08-26T21:14:04.381Z,9.80
2022-08-26T21:16:39.241Z,9.57
2022-08-26T21:19:14.002Z,9.45
2022-08-26T21:21:44.903Z,10.13
2022-08-26T21:24:15.785Z,10.20
2022-08-26T21:26:46.644Z,9.73
2022-08-26T21:29:22.132Z,10.10
2022-08-26T21:31:52.680Z,9.65
2022-08-26T21:34:23.883Z,10.10
2022-08-26T21:36:54.362Z,10.15
2022-08-26T21:39:24.776Z,9.90
2022-08-26T21:41:55.115Z,10.13
2022-08-26T21:44:28.316Z,9.93
2022-08-26T21:46:58.651Z,10.23
2022-08-26T21:49:28.842Z,10.00
2022-08-26T21:51:59.279Z,9.55
2022-08-26T21:54:29.480Z,10.07
2022-08-26T21:57:00.243Z,10.00
2022-08-26T21:59:33.369Z,11.38
2022-08-26T22:02:05.766Z,10.30
2022-08-26T22:04:36.303Z,11.00
2022-08-26T22:07:06.771Z,9.93
2022-08-26T22:09:40.336Z,10.13
2022-08-26T22:12:18.246Z,9.75
2022-08-26T22:14:51.161Z,11.02
2022-08-26T22:17:22.647Z,10.65
2022-08-26T22:19:53.340Z,11.25
2022-08-26T22:22:23.667Z,11.07
2022-08-26T22:24:54.034Z,10.63
2022-08-26T22:27:24.323Z,10.73
2022-08-26T22:29:57.375Z,10.73
2022-08-26T22:32:27.671Z,11.25
2022-08-26T22:34:57.966Z,11.57
2022-08-26T22:37:28.452Z,10.77
2022-08-26T22:39:58.751Z,11.07
2022-08-26T22:42:29.301Z,10.38
2022-08-26T22:45:02.278Z,10.55
2022-08-26T22:47:32.750Z,9.80
2022-08-26T22:50:06.633Z,10.15
2022-08-26T22:52:37.204Z,10.35
2022-08-26T22:55:09.175Z,9.70
2022-08-26T22:57:39.745Z,10.48
2022-08-26T23:00:15.248Z,10.13
2022-08-26T23:02:45.860Z,10.95
2022-08-26T23:05:16.440Z,9.93
2022-08-26T23:07:46.755Z,9.80
2022-08-26T23:10:17.112Z,9.73
2022-08-26T23:12:47.439Z,10.18
2022-08-26T23:15:20.265Z,9.45
2022-08-26T23:17:58.645Z,10.48
2022-08-26T23:20:30.736Z,9.65
2022-08-26T23:23:01.566Z,10.00
2022-08-26T23:25:32.593Z,10.57
2022-08-26T23:28:04.209Z,9.15
2022-08-26T23:30:37.378Z,9.20
2022-08-26T23:33:08.500Z,10.10
2022-08-26T23:35:36.215Z,10.00
2022-08-26T23:38:09.969Z,9.93
2022-08-26T23:40:44.160Z,10.43
2022-08-26T23:43:16.536Z,10.15
2022-08-26T23:45:49.588Z,10.38
2022-08-26T23:48:19.836Z,9.50
2022-08-26T23:51:04.912Z,10.02
2022-08-26T23:53:35.176Z,10.30
2022-08-26T23:56:06.040Z,10.18
2022-08-26T23:58:36.284Z,10.40
